Terminal Aerodrome Forecast
Issued by NWS

Home | Current Version | Previous Version | Text Only | Print | Product List | Glossary On
Versions: 1 2 3 4 5 6 7 8 9 10 11 12 13 14 15 16 17 18 19 20 21 22 23
569
FTUS41 KPBZ 282027 AAA
TAFDUJ
TAF AMD
KDUJ 282027Z 2820/2918 10009KT 3SM -SHRA OVC008
      TEMPO 2820/2822 3/4SM SHRA
     FM282300 09007KT 5SM -SHRA OVC010
     FM290100 08006KT P6SM OVC008
     FM290400 08005KT P6SM OVC004
     FM291500 VRB04KT P6SM VCSH OVC008=

USA.gov is the U.S. government's official web portal to all federal, state and local government web resources and services.